LiveATC.Net - Listen to live air traffic control over the Internet!


ICAO: EHVL  IATA:   Airport: Vlieland Heliport
City: Vlieland
Country: Netherlands   Continent: Europe
EHVL METAR Weather: EHVL 161455Z AUTO 27010KT 9999 OVC170 23/18 Q1009 BLU
EHVL ADS-B Flight Tracking (ADSBExchange)
EHVL Flight Activity (FlightAware)

EHVL CTAF/Range Control
Feed Status: DOWN
Last heard on: 2021-06-08 14:20:38 (434 days 1 hours 7 minutes ago)
Archive Access: EHVL CTAF/Range Control
FacilityFrequency
Cornfield VHF (CTAF)122.100
Range Controller (Primary)291.650
Range Controller (Secondary)370.300
Range Controller VHF138.075

NOTICE

Unauthorized use prohibited. See LiveATC.net Terms of Service


Airport/ARTCC Code
Frequency Search
(e.g., 124.400, 128.75)
Site-wide search
 


Browse Feeds
Top 50 Feeds
HF Oceanic Feeds
Coverage Map
Bad Weather Areas

LiveATC FAQ
Offer LiveATC feed
Contact LiveATC.net
Press Inquiries

LiveATC on iPhone
LiveATC on Android

LiveATC Mobile
(Mobile browser)

ATC Audio Archives
Interesting Recordings

LiveATC Forums


Home Page
About LiveATC.net


Terms of Use
Privacy Policy

AIRMETs/SIGMETs

FAA Airport Status
NAS Status
Arrival Demand


Server Software By:
Icecast.org
Liquidsoap